Marshallville, Kentucky
Current Conditions -  °F | °C
As of 10:53 AM on Tuesday 27 Jan 2015 (Local Time) from KJKL Reporting Station
Overcast Overcast  
Wind Chill: -5°   Ceiling: 5000
Heat Index: -2°   Visibility: 10mi
Dew Point: -7°   Wind: 5mph
Humidity: 69%   Direction: NA
Pressure: 29.99"   Gusts: NA
Location:  37.76°N, 83.05°W
Report Text: KJKL 271553Z AUTO VRB04KT 10SM OVC050 M02/M07 A2999 RMK AO2 SLP168 T10221072
Loading
Personal Weather Stations






























Interactive Weather Map New forecast layout! Learn more

10-Day Weather Forecast

Advertisements
Track Severe Weather on mobile